sensor_id;sensor_type;location;lat;lon;timestamp;P1;durP1;ratioP1;P2;durP2;ratioP2
7116;SDS011;3600;48.568;7.870;2024-01-11T00:00:49;26.43;;;15.70;;
7116;SDS011;3600;48.568;7.870;2024-01-11T00:03:16;23.20;;;16.13;;
7116;SDS011;3600;48.568;7.870;2024-01-11T00:05:42;28.40;;;17.23;;
7116;SDS011;3600;48.568;7.870;2024-01-11T00:08:10;21.70;;;15.37;;
7116;SDS011;3600;48.568;7.870;2024-01-11T00:10:37;28.87;;;16.47;;
7116;SDS011;3600;48.568;7.870;2024-01-11T00:13:04;24.90;;;15.47;;
7116;SDS011;3600;48.568;7.870;2024-01-11T00:15:31;25.43;;;16.00;;
7116;SDS011;3600;48.568;7.870;2024-01-11T00:17:58;23.07;;;15.90;;
7116;SDS011;3600;48.568;7.870;2024-01-11T00:20:26;27.40;;;14.60;;
7116;SDS011;3600;48.568;7.870;2024-01-11T00:22:53;26.30;;;15.67;;
7116;SDS011;3600;48.568;7.870;2024-01-11T00:25:20;28.37;;;16.87;;
7116;SDS011;3600;48.568;7.870;2024-01-11T00:27:46;25.13;;;16.43;;
7116;SDS011;3600;48.568;7.870;2024-01-11T00:30:13;25.90;;;16.37;;
7116;SDS011;3600;48.568;7.870;2024-01-11T00:32:41;30.07;;;17.00;;
7116;SDS011;3600;48.568;7.870;2024-01-11T00:35:08;24.37;;;15.43;;
7116;SDS011;3600;48.568;7.870;2024-01-11T00:37:35;30.47;;;16.63;;
7116;SDS011;3600;48.568;7.870;2024-01-11T00:40:02;28.23;;;17.47;;
7116;SDS011;3600;48.568;7.870;2024-01-11T00:42:31;25.77;;;16.27;;
7116;SDS011;3600;48.568;7.870;2024-01-11T00:44:57;24.47;;;15.97;;
7116;SDS011;3600;48.568;7.870;2024-01-11T00:47:29;25.43;;;16.10;;
7116;SDS011;3600;48.568;7.870;2024-01-11T00:49:56;24.83;;;15.70;;
7116;SDS011;3600;48.568;7.870;2024-01-11T00:52:24;28.93;;;16.17;;
7116;SDS011;3600;48.568;7.870;2024-01-11T00:54:51;30.93;;;17.80;;
7116;SDS011;3600;48.568;7.870;2024-01-11T00:57:18;32.77;;;17.97;;
7116;SDS011;3600;48.568;7.870;2024-01-11T00:59:47;31.97;;;18.73;;
7116;SDS011;3600;48.568;7.870;2024-01-11T01:02:16;30.57;;;18.37;;
7116;SDS011;3600;48.568;7.870;2024-01-11T01:04:44;29.53;;;17.07;;
7116;SDS011;3600;48.568;7.870;2024-01-11T01:07:12;27.77;;;17.47;;
7116;SDS011;3600;48.568;7.870;2024-01-11T01:09:39;26.53;;;17.30;;
7116;SDS011;3600;48.568;7.870;2024-01-11T01:12:06;30.90;;;16.93;;
7116;SDS011;3600;48.568;7.870;2024-01-11T01:14:33;30.47;;;17.60;;
7116;SDS011;3600;48.568;7.870;2024-01-11T01:17:00;27.10;;;16.40;;
7116;SDS011;3600;48.568;7.870;2024-01-11T01:19:28;23.20;;;15.67;;
7116;SDS011;3600;48.568;7.870;2024-01-11T01:21:58;28.90;;;17.27;;
7116;SDS011;3600;48.568;7.870;2024-01-11T01:24:28;26.90;;;16.47;;
7116;SDS011;3600;48.568;7.870;2024-01-11T01:26:58;27.50;;;16.43;;
7116;SDS011;3600;48.568;7.870;2024-01-11T01:29:29;30.53;;;16.70;;
7116;SDS011;3600;48.568;7.870;2024-01-11T01:31:56;29.23;;;17.03;;
7116;SDS011;3600;48.568;7.870;2024-01-11T01:34:23;27.20;;;17.00;;
7116;SDS011;3600;48.568;7.870;2024-01-11T01:36:50;26.03;;;17.13;;
7116;SDS011;3600;48.568;7.870;2024-01-11T01:39:17;27.93;;;17.27;;
7116;SDS011;3600;48.568;7.870;2024-01-11T01:41:45;27.77;;;16.57;;
7116;SDS011;3600;48.568;7.870;2024-01-11T01:44:12;29.60;;;16.47;;
7116;SDS011;3600;48.568;7.870;2024-01-11T01:46:39;29.13;;;16.33;;
7116;SDS011;3600;48.568;7.870;2024-01-11T01:49:06;30.57;;;17.03;;
7116;SDS011;3600;48.568;7.870;2024-01-11T01:51:34;24.10;;;15.73;;
7116;SDS011;3600;48.568;7.870;2024-01-11T01:54:03;27.20;;;17.23;;
7116;SDS011;3600;48.568;7.870;2024-01-11T01:56:30;27.23;;;16.03;;
7116;SDS011;3600;48.568;7.870;2024-01-11T01:58:59;26.53;;;17.20;;
7116;SDS011;3600;48.568;7.870;2024-01-11T02:01:28;24.33;;;16.07;;
7116;SDS011;3600;48.568;7.870;2024-01-11T02:03:57;25.20;;;16.20;;
7116;SDS011;3600;48.568;7.870;2024-01-11T02:06:25;28.70;;;16.30;;
7116;SDS011;3600;48.568;7.870;2024-01-11T02:08:56;26.03;;;16.80;;
7116;SDS011;3600;48.568;7.870;2024-01-11T02:11:25;28.00;;;17.17;;
7116;SDS011;3600;48.568;7.870;2024-01-11T02:13:53;29.10;;;17.03;;
7116;SDS011;3600;48.568;7.870;2024-01-11T02:16:21;25.93;;;16.20;;
7116;SDS011;3600;48.568;7.870;2024-01-11T02:18:48;26.37;;;17.07;;
7116;SDS011;3600;48.568;7.870;2024-01-11T02:21:15;25.17;;;15.90;;
7116;SDS011;3600;48.568;7.870;2024-01-11T02:23:44;26.80;;;15.87;;
7116;SDS011;3600;48.568;7.870;2024-01-11T02:26:33;27.67;;;16.27;;
7116;SDS011;3600;48.568;7.870;2024-01-11T02:29:02;23.73;;;16.50;;
7116;SDS011;3600;48.568;7.870;2024-01-11T02:31:32;28.80;;;16.60;;
7116;SDS011;3600;48.568;7.870;2024-01-11T02:34:00;27.30;;;16.33;;
7116;SDS011;3600;48.568;7.870;2024-01-11T02:36:27;24.60;;;16.03;;
7116;SDS011;3600;48.568;7.870;2024-01-11T02:38:56;26.70;;;16.77;;
7116;SDS011;3600;48.568;7.870;2024-01-11T02:41:27;26.30;;;16.07;;
7116;SDS011;3600;48.568;7.870;2024-01-11T02:43:55;27.33;;;15.53;;
7116;SDS011;3600;48.568;7.870;2024-01-11T02:46:22;27.67;;;16.67;;
7116;SDS011;3600;48.568;7.870;2024-01-11T02:48:49;26.13;;;16.20;;
7116;SDS011;3600;48.568;7.870;2024-01-11T02:51:16;24.67;;;15.73;;
7116;SDS011;3600;48.568;7.870;2024-01-11T02:53:43;26.43;;;16.60;;
7116;SDS011;3600;48.568;7.870;2024-01-11T02:56:13;25.97;;;16.73;;
7116;SDS011;3600;48.568;7.870;2024-01-11T02:58:50;25.43;;;16.13;;
7116;SDS011;3600;48.568;7.870;2024-01-11T03:01:18;27.37;;;16.40;;
7116;SDS011;3600;48.568;7.870;2024-01-11T03:03:51;26.23;;;16.37;;
7116;SDS011;3600;48.568;7.870;2024-01-11T03:06:24;28.30;;;16.70;;
7116;SDS011;3600;48.568;7.870;2024-01-11T03:08:58;28.80;;;15.40;;
7116;SDS011;3600;48.568;7.870;2024-01-11T03:11:29;24.33;;;16.27;;
7116;SDS011;3600;48.568;7.870;2024-01-11T03:14:08;27.73;;;16.20;;
7116;SDS011;3600;48.568;7.870;2024-01-11T03:16:39;22.47;;;15.00;;
7116;SDS011;3600;48.568;7.870;2024-01-11T03:19:10;26.30;;;16.20;;
7116;SDS011;3600;48.568;7.870;2024-01-11T03:21:45;26.57;;;16.27;;
7116;SDS011;3600;48.568;7.870;2024-01-11T03:24:13;26.47;;;16.17;;
7116;SDS011;3600;48.568;7.870;2024-01-11T03:26:40;24.77;;;15.80;;
7116;SDS011;3600;48.568;7.870;2024-01-11T03:29:08;25.80;;;16.57;;
7116;SDS011;3600;48.568;7.870;2024-01-11T03:31:35;25.83;;;15.87;;
7116;SDS011;3600;48.568;7.870;2024-01-11T03:34:02;28.03;;;17.10;;
7116;SDS011;3600;48.568;7.870;2024-01-11T03:36:29;25.83;;;16.93;;
7116;SDS011;3600;48.568;7.870;2024-01-11T03:38:56;28.47;;;16.07;;
7116;SDS011;3600;48.568;7.870;2024-01-11T03:41:23;27.57;;;16.57;;
7116;SDS011;3600;48.568;7.870;2024-01-11T03:43:50;28.57;;;16.57;;
7116;SDS011;3600;48.568;7.870;2024-01-11T03:46:22;32.10;;;16.50;;
7116;SDS011;3600;48.568;7.870;2024-01-11T03:48:49;24.90;;;16.07;;
7116;SDS011;3600;48.568;7.870;2024-01-11T03:51:16;22.00;;;15.30;;
7116;SDS011;3600;48.568;7.870;2024-01-11T03:53:43;22.00;;;15.07;;
7116;SDS011;3600;48.568;7.870;2024-01-11T03:56:10;28.57;;;17.37;;
7116;SDS011;3600;48.568;7.870;2024-01-11T03:58:38;27.30;;;15.30;;
7116;SDS011;3600;48.568;7.870;2024-01-11T04:01:07;32.60;;;17.80;;
7116;SDS011;3600;48.568;7.870;2024-01-11T04:03:36;25.60;;;16.93;;
7116;SDS011;3600;48.568;7.870;2024-01-11T04:06:03;23.27;;;15.67;;
7116;SDS011;3600;48.568;7.870;2024-01-11T04:08:32;23.07;;;14.70;;
7116;SDS011;3600;48.568;7.870;2024-01-11T04:11:03;26.20;;;16.13;;
7116;SDS011;3600;48.568;7.870;2024-01-11T04:13:31;26.17;;;16.00;;
7116;SDS011;3600;48.568;7.870;2024-01-11T04:15:58;24.43;;;15.10;;
7116;SDS011;3600;48.568;7.870;2024-01-11T04:18:25;29.47;;;16.37;;
7116;SDS011;3600;48.568;7.870;2024-01-11T04:20:52;25.77;;;15.43;;
7116;SDS011;3600;48.568;7.870;2024-01-11T04:23:19;23.53;;;15.13;;
7116;SDS011;3600;48.568;7.870;2024-01-11T04:25:47;30.60;;;16.70;;
7116;SDS011;3600;48.568;7.870;2024-01-11T04:28:14;24.47;;;16.73;;
7116;SDS011;3600;48.568;7.870;2024-01-11T04:30:41;26.87;;;15.40;;
7116;SDS011;3600;48.568;7.870;2024-01-11T04:33:08;32.00;;;17.63;;
7116;SDS011;3600;48.568;7.870;2024-01-11T04:35:35;25.83;;;15.87;;
7116;SDS011;3600;48.568;7.870;2024-01-11T04:38:03;25.43;;;15.43;;
7116;SDS011;3600;48.568;7.870;2024-01-11T04:40:30;25.87;;;16.77;;
7116;SDS011;3600;48.568;7.870;2024-01-11T04:42:57;25.30;;;15.80;;
7116;SDS011;3600;48.568;7.870;2024-01-11T04:45:23;25.90;;;16.70;;
7116;SDS011;3600;48.568;7.870;2024-01-11T04:47:50;28.17;;;16.17;;
7116;SDS011;3600;48.568;7.870;2024-01-11T04:50:18;30.97;;;17.30;;
7116;SDS011;3600;48.568;7.870;2024-01-11T04:52:48;24.83;;;15.10;;
7116;SDS011;3600;48.568;7.870;2024-01-11T04:55:15;25.87;;;16.30;;
7116;SDS011;3600;48.568;7.870;2024-01-11T04:57:42;27.53;;;15.77;;
7116;SDS011;3600;48.568;7.870;2024-01-11T05:00:10;23.77;;;15.57;;
7116;SDS011;3600;48.568;7.870;2024-01-11T05:02:37;24.07;;;17.20;;
7116;SDS011;3600;48.568;7.870;2024-01-11T05:05:04;23.50;;;15.90;;
7116;SDS011;3600;48.568;7.870;2024-01-11T05:07:31;24.40;;;16.10;;
7116;SDS011;3600;48.568;7.870;2024-01-11T05:09:58;25.07;;;16.20;;
7116;SDS011;3600;48.568;7.870;2024-01-11T05:12:25;25.97;;;16.63;;
7116;SDS011;3600;48.568;7.870;2024-01-11T05:14:52;29.13;;;16.43;;
7116;SDS011;3600;48.568;7.870;2024-01-11T05:17:19;22.87;;;14.80;;
7116;SDS011;3600;48.568;7.870;2024-01-11T05:19:46;25.87;;;16.23;;
7116;SDS011;3600;48.568;7.870;2024-01-11T05:22:13;30.07;;;16.30;;
7116;SDS011;3600;48.568;7.870;2024-01-11T05:24:41;27.73;;;16.40;;
7116;SDS011;3600;48.568;7.870;2024-01-11T05:27:08;28.60;;;16.13;;
7116;SDS011;3600;48.568;7.870;2024-01-11T05:29:34;24.70;;;16.40;;
7116;SDS011;3600;48.568;7.870;2024-01-11T05:32:01;33.57;;;18.17;;
7116;SDS011;3600;48.568;7.870;2024-01-11T05:34:29;27.60;;;17.47;;
7116;SDS011;3600;48.568;7.870;2024-01-11T05:36:56;27.87;;;16.77;;
7116;SDS011;3600;48.568;7.870;2024-01-11T05:39:26;22.30;;;16.13;;
7116;SDS011;3600;48.568;7.870;2024-01-11T05:41:52;29.63;;;16.77;;
7116;SDS011;3600;48.568;7.870;2024-01-11T05:44:22;29.60;;;18.40;;
7116;SDS011;3600;48.568;7.870;2024-01-11T05:46:49;26.17;;;16.80;;
7116;SDS011;3600;48.568;7.870;2024-01-11T05:49:15;27.13;;;17.23;;
7116;SDS011;3600;48.568;7.870;2024-01-11T05:51:43;28.03;;;16.33;;
7116;SDS011;3600;48.568;7.870;2024-01-11T05:54:09;28.30;;;17.17;;
7116;SDS011;3600;48.568;7.870;2024-01-11T05:56:36;28.33;;;16.87;;
7116;SDS011;3600;48.568;7.870;2024-01-11T05:59:03;34.47;;;19.23;;
7116;SDS011;3600;48.568;7.870;2024-01-11T06:01:30;29.97;;;17.70;;
7116;SDS011;3600;48.568;7.870;2024-01-11T06:03:58;31.27;;;17.07;;
7116;SDS011;3600;48.568;7.870;2024-01-11T06:06:25;28.40;;;17.33;;
7116;SDS011;3600;48.568;7.870;2024-01-11T06:08:52;29.23;;;18.63;;
7116;SDS011;3600;48.568;7.870;2024-01-11T06:11:19;30.47;;;18.30;;
7116;SDS011;3600;48.568;7.870;2024-01-11T06:13:46;30.07;;;17.63;;
7116;SDS011;3600;48.568;7.870;2024-01-11T06:16:13;33.33;;;18.20;;
7116;SDS011;3600;48.568;7.870;2024-01-11T06:18:40;28.93;;;16.97;;
7116;SDS011;3600;48.568;7.870;2024-01-11T06:21:07;32.50;;;19.07;;
7116;SDS011;3600;48.568;7.870;2024-01-11T06:23:35;33.37;;;18.87;;
7116;SDS011;3600;48.568;7.870;2024-01-11T06:26:02;26.97;;;17.87;;
7116;SDS011;3600;48.568;7.870;2024-01-11T06:28:29;28.27;;;18.33;;
7116;SDS011;3600;48.568;7.870;2024-01-11T06:30:59;30.87;;;18.03;;
7116;SDS011;3600;48.568;7.870;2024-01-11T06:33:30;28.07;;;18.07;;
7116;SDS011;3600;48.568;7.870;2024-01-11T06:36:39;31.80;;;17.57;;
7116;SDS011;3600;48.568;7.870;2024-01-11T06:39:06;32.33;;;17.30;;
7116;SDS011;3600;48.568;7.870;2024-01-11T06:41:33;29.20;;;17.83;;
7116;SDS011;3600;48.568;7.870;2024-01-11T06:44:00;29.53;;;17.10;;
7116;SDS011;3600;48.568;7.870;2024-01-11T06:46:27;26.97;;;17.73;;
7116;SDS011;3600;48.568;7.870;2024-01-11T06:48:54;29.93;;;18.70;;
7116;SDS011;3600;48.568;7.870;2024-01-11T06:51:21;29.77;;;17.90;;
7116;SDS011;3600;48.568;7.870;2024-01-11T06:53:49;25.77;;;17.90;;
7116;SDS011;3600;48.568;7.870;2024-01-11T06:56:16;26.83;;;17.57;;
7116;SDS011;3600;48.568;7.870;2024-01-11T06:58:44;27.37;;;17.87;;
7116;SDS011;3600;48.568;7.870;2024-01-11T07:01:12;27.07;;;17.80;;
7116;SDS011;3600;48.568;7.870;2024-01-11T07:03:39;32.03;;;19.30;;
7116;SDS011;3600;48.568;7.870;2024-01-11T07:06:06;27.10;;;18.37;;
7116;SDS011;3600;48.568;7.870;2024-01-11T07:08:34;28.30;;;18.63;;
7116;SDS011;3600;48.568;7.870;2024-01-11T07:11:01;37.83;;;19.53;;
7116;SDS011;3600;48.568;7.870;2024-01-11T07:13:30;33.87;;;21.00;;
7116;SDS011;3600;48.568;7.870;2024-01-11T07:15:57;35.53;;;21.37;;
7116;SDS011;3600;48.568;7.870;2024-01-11T07:18:25;37.30;;;21.80;;
7116;SDS011;3600;48.568;7.870;2024-01-11T07:20:52;36.40;;;20.30;;
7116;SDS011;3600;48.568;7.870;2024-01-11T07:23:20;28.23;;;18.53;;
7116;SDS011;3600;48.568;7.870;2024-01-11T07:25:47;28.90;;;19.20;;
7116;SDS011;3600;48.568;7.870;2024-01-11T07:28:14;38.20;;;22.50;;
7116;SDS011;3600;48.568;7.870;2024-01-11T07:30:40;33.30;;;20.27;;
7116;SDS011;3600;48.568;7.870;2024-01-11T07:33:07;32.63;;;21.13;;
7116;SDS011;3600;48.568;7.870;2024-01-11T07:35:36;44.30;;;27.57;;
7116;SDS011;3600;48.568;7.870;2024-01-11T07:38:03;37.47;;;23.93;;
7116;SDS011;3600;48.568;7.870;2024-01-11T07:40:30;34.87;;;22.67;;
7116;SDS011;3600;48.568;7.870;2024-01-11T07:43:01;35.13;;;19.77;;
7116;SDS011;3600;48.568;7.870;2024-01-11T07:45:28;36.93;;;19.23;;
7116;SDS011;3600;48.568;7.870;2024-01-11T07:47:54;27.90;;;19.53;;
7116;SDS011;3600;48.568;7.870;2024-01-11T07:50:21;29.70;;;20.73;;
7116;SDS011;3600;48.568;7.870;2024-01-11T07:52:48;37.30;;;20.27;;
7116;SDS011;3600;48.568;7.870;2024-01-11T07:55:14;34.57;;;20.27;;
7116;SDS011;3600;48.568;7.870;2024-01-11T07:57:41;33.67;;;20.40;;
7116;SDS011;3600;48.568;7.870;2024-01-11T08:00:08;33.87;;;20.57;;
7116;SDS011;3600;48.568;7.870;2024-01-11T08:02:35;36.67;;;21.03;;
7116;SDS011;3600;48.568;7.870;2024-01-11T08:05:04;34.50;;;20.77;;
7116;SDS011;3600;48.568;7.870;2024-01-11T08:07:31;32.80;;;21.53;;
7116;SDS011;3600;48.568;7.870;2024-01-11T08:09:58;41.80;;;22.40;;
7116;SDS011;3600;48.568;7.870;2024-01-11T08:12:25;32.13;;;19.70;;
7116;SDS011;3600;48.568;7.870;2024-01-11T08:14:52;33.53;;;20.73;;
7116;SDS011;3600;48.568;7.870;2024-01-11T08:17:18;36.60;;;20.27;;
7116;SDS011;3600;48.568;7.870;2024-01-11T08:19:45;33.73;;;19.97;;
7116;SDS011;3600;48.568;7.870;2024-01-11T08:22:12;36.63;;;20.97;;
7116;SDS011;3600;48.568;7.870;2024-01-11T08:24:39;35.50;;;19.93;;
7116;SDS011;3600;48.568;7.870;2024-01-11T08:27:06;34.83;;;22.83;;
7116;SDS011;3600;48.568;7.870;2024-01-11T08:29:32;37.00;;;23.37;;
7116;SDS011;3600;48.568;7.870;2024-01-11T08:32:00;37.20;;;22.20;;
7116;SDS011;3600;48.568;7.870;2024-01-11T08:34:49;31.53;;;21.03;;
7116;SDS011;3600;48.568;7.870;2024-01-11T08:37:16;33.73;;;20.07;;
7116;SDS011;3600;48.568;7.870;2024-01-11T08:39:43;31.37;;;20.77;;
7116;SDS011;3600;48.568;7.870;2024-01-11T08:42:12;31.00;;;20.57;;
7116;SDS011;3600;48.568;7.870;2024-01-11T08:44:41;30.13;;;19.00;;
7116;SDS011;3600;48.568;7.870;2024-01-11T08:47:09;29.93;;;19.10;;
7116;SDS011;3600;48.568;7.870;2024-01-11T08:49:36;27.33;;;18.60;;
7116;SDS011;3600;48.568;7.870;2024-01-11T08:52:05;32.50;;;18.93;;
7116;SDS011;3600;48.568;7.870;2024-01-11T08:54:32;30.57;;;19.43;;
7116;SDS011;3600;48.568;7.870;2024-01-11T08:57:00;29.20;;;18.93;;
7116;SDS011;3600;48.568;7.870;2024-01-11T08:59:27;35.90;;;19.43;;
7116;SDS011;3600;48.568;7.870;2024-01-11T09:01:54;32.17;;;19.40;;
7116;SDS011;3600;48.568;7.870;2024-01-11T09:04:35;31.47;;;19.20;;
7116;SDS011;3600;48.568;7.870;2024-01-11T09:07:03;29.00;;;19.93;;
7116;SDS011;3600;48.568;7.870;2024-01-11T09:09:30;32.90;;;20.00;;
7116;SDS011;3600;48.568;7.870;2024-01-11T09:12:04;31.07;;;19.87;;
7116;SDS011;3600;48.568;7.870;2024-01-11T09:14:31;29.10;;;20.13;;
7116;SDS011;3600;48.568;7.870;2024-01-11T09:16:58;31.03;;;19.30;;
7116;SDS011;3600;48.568;7.870;2024-01-11T09:19:25;33.33;;;20.70;;
7116;SDS011;3600;48.568;7.870;2024-01-11T09:21:51;31.63;;;19.47;;
7116;SDS011;3600;48.568;7.870;2024-01-11T09:24:18;31.93;;;20.67;;
7116;SDS011;3600;48.568;7.870;2024-01-11T09:26:45;31.10;;;20.47;;
7116;SDS011;3600;48.568;7.870;2024-01-11T09:29:12;33.27;;;20.77;;
7116;SDS011;3600;48.568;7.870;2024-01-11T09:31:39;34.07;;;20.73;;
7116;SDS011;3600;48.568;7.870;2024-01-11T09:34:06;32.23;;;20.70;;
7116;SDS011;3600;48.568;7.870;2024-01-11T09:36:33;32.53;;;20.80;;
7116;SDS011;3600;48.568;7.870;2024-01-11T09:39:00;33.67;;;19.87;;
7116;SDS011;3600;48.568;7.870;2024-01-11T09:41:27;31.27;;;20.23;;
7116;SDS011;3600;48.568;7.870;2024-01-11T09:43:55;33.27;;;20.63;;
7116;SDS011;3600;48.568;7.870;2024-01-11T09:46:26;32.57;;;19.70;;
7116;SDS011;3600;48.568;7.870;2024-01-11T09:48:55;32.97;;;19.77;;
7116;SDS011;3600;48.568;7.870;2024-01-11T09:51:23;34.00;;;20.00;;
7116;SDS011;3600;48.568;7.870;2024-01-11T09:53:52;32.90;;;19.93;;
7116;SDS011;3600;48.568;7.870;2024-01-11T09:56:22;33.17;;;20.57;;
7116;SDS011;3600;48.568;7.870;2024-01-11T09:58:50;31.43;;;19.67;;
7116;SDS011;3600;48.568;7.870;2024-01-11T10:01:17;29.17;;;20.23;;
7116;SDS011;3600;48.568;7.870;2024-01-11T10:03:44;34.27;;;21.37;;
7116;SDS011;3600;48.568;7.870;2024-01-11T10:06:12;33.17;;;21.70;;
7116;SDS011;3600;48.568;7.870;2024-01-11T10:08:42;35.30;;;21.73;;
7116;SDS011;3600;48.568;7.870;2024-01-11T10:11:10;31.30;;;20.40;;
7116;SDS011;3600;48.568;7.870;2024-01-11T10:13:37;35.40;;;22.07;;
7116;SDS011;3600;48.568;7.870;2024-01-11T10:16:05;32.57;;;21.10;;
7116;SDS011;3600;48.568;7.870;2024-01-11T10:18:33;34.87;;;20.80;;
7116;SDS011;3600;48.568;7.870;2024-01-11T10:21:01;33.70;;;21.03;;
7116;SDS011;3600;48.568;7.870;2024-01-11T10:23:29;33.30;;;20.93;;
7116;SDS011;3600;48.568;7.870;2024-01-11T10:25:59;33.27;;;22.47;;
7116;SDS011;3600;48.568;7.870;2024-01-11T10:28:27;33.07;;;21.73;;
7116;SDS011;3600;48.568;7.870;2024-01-11T10:30:54;36.93;;;22.47;;
7116;SDS011;3600;48.568;7.870;2024-01-11T10:33:22;31.80;;;20.73;;
7116;SDS011;3600;48.568;7.870;2024-01-11T10:35:49;33.67;;;22.23;;
7116;SDS011;3600;48.568;7.870;2024-01-11T10:38:16;37.10;;;21.60;;
7116;SDS011;3600;48.568;7.870;2024-01-11T10:40:44;32.27;;;21.80;;
7116;SDS011;3600;48.568;7.870;2024-01-11T10:43:11;35.10;;;22.50;;
7116;SDS011;3600;48.568;7.870;2024-01-11T10:45:42;37.43;;;21.30;;
7116;SDS011;3600;48.568;7.870;2024-01-11T10:48:14;34.70;;;21.97;;
7116;SDS011;3600;48.568;7.870;2024-01-11T10:50:42;33.97;;;22.33;;
7116;SDS011;3600;48.568;7.870;2024-01-11T10:55:46;36.47;;;23.30;;
7116;SDS011;3600;48.568;7.870;2024-01-11T10:58:14;33.00;;;21.40;;
7116;SDS011;3600;48.568;7.870;2024-01-11T11:00:42;32.40;;;21.73;;
7116;SDS011;3600;48.568;7.870;2024-01-11T11:03:09;35.63;;;22.83;;
7116;SDS011;3600;48.568;7.870;2024-01-11T11:05:38;36.50;;;21.40;;
7116;SDS011;3600;48.568;7.870;2024-01-11T11:08:06;37.33;;;23.00;;
7116;SDS011;3600;48.568;7.870;2024-01-11T11:10:34;34.77;;;22.33;;
7116;SDS011;3600;48.568;7.870;2024-01-11T11:13:01;33.63;;;22.57;;
7116;SDS011;3600;48.568;7.870;2024-01-11T11:15:29;34.83;;;22.07;;
7116;SDS011;3600;48.568;7.870;2024-01-11T11:17:57;32.80;;;21.17;;
7116;SDS011;3600;48.568;7.870;2024-01-11T11:20:24;34.83;;;21.40;;
7116;SDS011;3600;48.568;7.870;2024-01-11T11:23:04;32.63;;;22.13;;
7116;SDS011;3600;48.568;7.870;2024-01-11T11:25:32;36.53;;;22.37;;
7116;SDS011;3600;48.568;7.870;2024-01-11T11:27:59;33.63;;;22.37;;
7116;SDS011;3600;48.568;7.870;2024-01-11T11:30:32;32.60;;;20.07;;
7116;SDS011;3600;48.568;7.870;2024-01-11T11:33:08;34.30;;;22.23;;
7116;SDS011;3600;48.568;7.870;2024-01-11T11:35:46;33.30;;;21.97;;
7116;SDS011;3600;48.568;7.870;2024-01-11T11:38:17;33.07;;;21.40;;
7116;SDS011;3600;48.568;7.870;2024-01-11T11:40:47;36.17;;;21.83;;
7116;SDS011;3600;48.568;7.870;2024-01-11T11:43:15;30.77;;;20.03;;
7116;SDS011;3600;48.568;7.870;2024-01-11T11:45:44;33.17;;;21.70;;
7116;SDS011;3600;48.568;7.870;2024-01-11T11:53:42;33.33;;;21.93;;
7116;SDS011;3600;48.568;7.870;2024-01-11T11:56:10;35.23;;;23.00;;
7116;SDS011;3600;48.568;7.870;2024-01-11T11:58:38;34.43;;;22.03;;
7116;SDS011;3600;48.568;7.870;2024-01-11T12:01:05;38.50;;;24.57;;
7116;SDS011;3600;48.568;7.870;2024-01-11T12:03:33;35.67;;;23.03;;
7116;SDS011;3600;48.568;7.870;2024-01-11T12:06:05;38.33;;;22.60;;
7116;SDS011;3600;48.568;7.870;2024-01-11T12:08:35;32.00;;;21.50;;
7116;SDS011;3600;48.568;7.870;2024-01-11T12:11:03;40.17;;;21.80;;
7116;SDS011;3600;48.568;7.870;2024-01-11T12:13:31;32.87;;;21.87;;
7116;SDS011;3600;48.568;7.870;2024-01-11T12:15:58;36.23;;;22.57;;
7116;SDS011;3600;48.568;7.870;2024-01-11T12:18:25;32.87;;;21.17;;
7116;SDS011;3600;48.568;7.870;2024-01-11T12:20:53;30.37;;;21.27;;
7116;SDS011;3600;48.568;7.870;2024-01-11T12:23:19;31.37;;;21.63;;
7116;SDS011;3600;48.568;7.870;2024-01-11T12:25:46;34.90;;;22.23;;
7116;SDS011;3600;48.568;7.870;2024-01-11T12:28:14;36.30;;;22.80;;
7116;SDS011;3600;48.568;7.870;2024-01-11T12:30:41;32.23;;;21.53;;
7116;SDS011;3600;48.568;7.870;2024-01-11T12:33:09;34.33;;;22.77;;
7116;SDS011;3600;48.568;7.870;2024-01-11T12:35:37;35.03;;;23.27;;
7116;SDS011;3600;48.568;7.870;2024-01-11T12:38:05;34.23;;;22.40;;
7116;SDS011;3600;48.568;7.870;2024-01-11T12:40:33;32.93;;;22.37;;
7116;SDS011;3600;48.568;7.870;2024-01-11T12:43:04;32.07;;;21.07;;
7116;SDS011;3600;48.568;7.870;2024-01-11T12:45:33;32.57;;;21.93;;
7116;SDS011;3600;48.568;7.870;2024-01-11T12:50:52;30.10;;;21.33;;
7116;SDS011;3600;48.568;7.870;2024-01-11T12:54:22;31.70;;;22.10;;
7116;SDS011;3600;48.568;7.870;2024-01-11T12:57:51;31.13;;;21.50;;
7116;SDS011;3600;48.568;7.870;2024-01-11T13:04:50;33.97;;;20.60;;
7116;SDS011;3600;48.568;7.870;2024-01-11T13:08:17;32.93;;;21.87;;
7116;SDS011;3600;48.568;7.870;2024-01-11T13:11:10;29.83;;;21.67;;
7116;SDS011;3600;48.568;7.870;2024-01-11T13:14:30;32.57;;;22.07;;
7116;SDS011;3600;48.568;7.870;2024-01-11T13:18:01;32.67;;;21.63;;
7116;SDS011;3600;48.568;7.870;2024-01-11T13:21:04;40.33;;;24.67;;
7116;SDS011;3600;48.568;7.870;2024-01-11T13:24:02;31.53;;;22.10;;
7116;SDS011;3600;48.568;7.870;2024-01-11T13:26:48;33.17;;;22.07;;
7116;SDS011;3600;48.568;7.870;2024-01-11T13:29:49;32.37;;;21.53;;
7116;SDS011;3600;48.568;7.870;2024-01-11T13:35:47;32.87;;;21.80;;
7116;SDS011;3600;48.568;7.870;2024-01-11T13:41:14;35.80;;;21.40;;
7116;SDS011;3600;48.568;7.870;2024-01-11T13:43:55;29.37;;;20.67;;
7116;SDS011;3600;48.568;7.870;2024-01-11T13:46:29;32.23;;;22.33;;
7116;SDS011;3600;48.568;7.870;2024-01-11T13:49:02;32.40;;;21.63;;
7116;SDS011;3600;48.568;7.870;2024-01-11T13:51:54;30.40;;;20.27;;
7116;SDS011;3600;48.568;7.870;2024-01-11T13:54:36;31.90;;;21.43;;
7116;SDS011;3600;48.568;7.870;2024-01-11T13:57:25;32.27;;;22.23;;
7116;SDS011;3600;48.568;7.870;2024-01-11T14:00:14;30.63;;;20.77;;
7116;SDS011;3600;48.568;7.870;2024-01-11T14:05:50;32.20;;;22.37;;
7116;SDS011;3600;48.568;7.870;2024-01-11T14:08:35;33.17;;;21.30;;
7116;SDS011;3600;48.568;7.870;2024-01-11T14:14:16;33.63;;;21.60;;
7116;SDS011;3600;48.568;7.870;2024-01-11T14:17:03;39.77;;;22.23;;
7116;SDS011;3600;48.568;7.870;2024-01-11T14:19:41;34.63;;;22.13;;
7116;SDS011;3600;48.568;7.870;2024-01-11T14:22:40;34.07;;;21.73;;
7116;SDS011;3600;48.568;7.870;2024-01-11T14:25:39;32.80;;;22.00;;
7116;SDS011;3600;48.568;7.870;2024-01-11T14:28:26;34.53;;;21.50;;
7116;SDS011;3600;48.568;7.870;2024-01-11T14:31:20;31.30;;;20.47;;
7116;SDS011;3600;48.568;7.870;2024-01-11T14:34:22;31.70;;;21.17;;
7116;SDS011;3600;48.568;7.870;2024-01-11T14:37:10;30.97;;;20.50;;
7116;SDS011;3600;48.568;7.870;2024-01-11T14:40:40;31.07;;;21.00;;
7116;SDS011;3600;48.568;7.870;2024-01-11T14:44:07;27.07;;;19.90;;
7116;SDS011;3600;48.568;7.870;2024-01-11T15:14:20;32.23;;;21.67;;
7116;SDS011;3600;48.568;7.870;2024-01-11T15:17:31;33.73;;;21.23;;
7116;SDS011;3600;48.568;7.870;2024-01-11T15:20:11;34.73;;;22.30;;
7116;SDS011;3600;48.568;7.870;2024-01-11T15:22:46;37.57;;;22.33;;
7116;SDS011;3600;48.568;7.870;2024-01-11T15:25:33;34.80;;;22.37;;
7116;SDS011;3600;48.568;7.870;2024-01-11T15:28:10;31.87;;;21.47;;
7116;SDS011;3600;48.568;7.870;2024-01-11T15:30:46;31.70;;;21.60;;
7116;SDS011;3600;48.568;7.870;2024-01-11T15:33:22;34.23;;;21.97;;
7116;SDS011;3600;48.568;7.870;2024-01-11T15:35:56;33.30;;;21.10;;
7116;SDS011;3600;48.568;7.870;2024-01-11T15:38:30;33.20;;;21.83;;
7116;SDS011;3600;48.568;7.870;2024-01-11T15:41:53;33.43;;;21.80;;
7116;SDS011;3600;48.568;7.870;2024-01-11T15:44:59;38.07;;;21.60;;
7116;SDS011;3600;48.568;7.870;2024-01-11T15:47:38;39.00;;;23.50;;
7116;SDS011;3600;48.568;7.870;2024-01-11T15:55:12;29.80;;;21.47;;
7116;SDS011;3600;48.568;7.870;2024-01-11T15:58:22;32.60;;;19.33;;
7116;SDS011;3600;48.568;7.870;2024-01-11T16:01:10;29.57;;;20.60;;
7116;SDS011;3600;48.568;7.870;2024-01-11T16:08:15;34.00;;;21.47;;
7116;SDS011;3600;48.568;7.870;2024-01-11T16:10:50;35.30;;;22.03;;
7116;SDS011;3600;48.568;7.870;2024-01-11T16:13:24;28.23;;;20.63;;
7116;SDS011;3600;48.568;7.870;2024-01-11T16:16:01;33.13;;;21.00;;
7116;SDS011;3600;48.568;7.870;2024-01-11T16:29:57;34.80;;;20.43;;